Terminal Aerodrome Forecast
Issued by NWS

Home | Current Version | Previous Version | Text Only | Print | Product List | Glossary Off
Versions: 1 2 3 4 5 6 7 8 9 10 11 12 13

000
FTUS43 KOAX 182300
TAFCDR
TAF
KCDR 182337Z 1900/1924 19012KT P6SM SCT250
     FM190600 VRB04KT P6SM SCT250
     FM191900 35005KT P6SM SCT250=

USA.gov is the U.S. government's official web portal to all federal, state and local government web resources and services.